Terminal Aerodrome Forecast
Issued by NWS

Home | Current Version | Previous Version | Text Only | Print | Product List | Glossary On
Versions: 1 2 3 4 5 6 7 8 9 10 11 12 13 14 15 16 17 18 19 20 21 22 23 24 25 26 27 28 29 30
000
FTUS41 KOKX 281100
TAFTEB
TAF
KTEB 281121Z 2812/2912 30006KT P6SM FEW050 SCT100
     FM281400 31011G19KT P6SM FEW050
     FM282100 31007KT P6SM SCT250
     FM290500 VRB02KT P6SM SCT100 BKN250=

USA.gov is the U.S. government's official web portal to all federal, state and local government web resources and services.